Aviation Digital Data Service (ADDS)

Output produced by METARs form (1858 UTC 25 March 2019)
found at http://www.aviationweather.gov/metar/data/
 
Forecast for: LFPB (PARIS/LE BOURGET, FR)
Text: TAF LFPB 251700Z 2518/2618 36010KT CAVOK
Forecast period: 1800 UTC 25 March 2019 to 1800 UTC 26 March 2019
Forecast type: FROM: standard forecast or significant change
Winds: from the N (360 degrees) at 12 MPH (10 knots; 5.1 m/s)
Visibility: 6 or more miles 10+ km)
Ceiling: unknown
Clouds: missing
Weather: NSW  (no significant weather)
Text: TEMPO 2603/2609 BKN011
Forecast period: 0300 to 0900 UTC 26 March 2019
Forecast type: TEMPORARY: The following changes expected for less than half the time period
Visibility: missing
Ceiling: 1100 feet AGL
Clouds: broken clouds at 1100 feet AGL
Weather: no significant weather forecast for this period
Text: PROB40
Forecast period: 0300 to 0600 UTC 26 March 2019
Forecast type: TEMPORARY: The following changes expected for less than half the time period
Visibility: missing
Ceiling: 600 feet AGL
Clouds: broken clouds at 600 feet AGL
Weather: no significant weather forecast for this period